METAR EFET 221120Z AUTO 16010KT 130V210 CAVOK 24/11 Q1015=
METAR EFHA 221120Z AUTO 12008KT 080V150 CAVOK 25/13 Q1015=
METAR EFHK 221120Z 13012KT 100V160 9999 FEW039 25/16 Q1014 NOSIG=
METAR EFIV 221120Z AUTO 19007KT 150V230 CAVOK 27/06 Q1015=
METAR EFJO 221120Z AUTO 12006KT 060V180 CAVOK 25/09 Q1016=
METAR EFJY 221120Z AUTO 16009KT CAVOK 26/13 Q1016=
METAR EFKE 221120Z AUTO 22009KT CAVOK 25/11 Q1016=
METAR EFKI 221120Z AUTO 16007KT 090V210 CAVOK 23/09 Q1017=
METAR EFKK 221120Z AUTO 08006KT CAVOK 26/15 Q1015=
METAR EFKS 221120Z AUTO 19007KT CAVOK 23/06 Q1018=
METAR EFKT 221120Z 20007KT 130V260 CAVOK 25/06 Q1016=
METAR EFKU 221120Z AUTO 09004KT 040V140 CAVOK 24/14 Q1016=
METAR EFLA 221120Z AUTO 13006KT 040V180 CAVOK 25/11 Q1015=
METAR EFLP 221120Z AUTO 10006KT 070V140 CAVOK 25/14 Q1015=
METAR EFMA 221120Z AUTO 20008KT 9999 FEW020 22/19 Q1013=
METAR EFMI 221120Z AUTO 09008KT 040V110 CAVOK 25/09 Q1016=
METAR EFOU 221120Z AUTO 12006KT 070V170 CAVOK 26/11 Q1016=
METAR EFPO 221120Z AUTO 12009KT 100V160 9999 FEW040 //////CB 25/16 Q1014=
METAR EFRO 221120Z AUTO VRB04KT CAVOK 24/06 Q1017=
METAR EFSA 221120Z AUTO 12005KT 070V180 CAVOK 25/08 Q1016=
METAR EFSI 221120Z AUTO 18007KT CAVOK 25/15 Q1015=
METAR EFTP 221120Z AUTO 09012KT CAVOK 25/14 Q1014=
METAR EFTU 221120Z AUTO 13009KT 100V160 9999 //////CB 24/16 Q1014=
METAR EFUT 221120Z 12007KT 060V180 CAVOK 26/12 Q1015=
METAR EFVA 221120Z AUTO 13005KT 100V190 9999 //////CB 26/17 Q1014=
ILHF 221120Z AUTO 11009KT 060V140 CAVOK 25/16 Q1014=
ILIK 221120Z AUTO 13009KT 080V190 9999 VCSH BKN039 //////CB 26/17 Q1014=
ILKA 221120Z AUTO 13004KT 090V160 9999 FEW047 25/17 Q1014=
ILKM 221120Z AUTO 16006KT 110V230 CAVOK 25/07 Q1017=
ILPR 221120Z AUTO 13007KT 060V160 CAVOK 26/15 Q1014=
ILPU 221120Z AUTO VRB05KT CAVOK 25/10 Q1017=
ILQA 221120Z AUTO VRB05KT CAVOK 25/08 Q1017=
ILQB 221120Z AUTO 22008KT 160V290 CAVOK 27/06 Q1015=
ILQC 221120Z AUTO 21009KT 160V260 CAVOK 25/10 Q1016=
ILQD 221120Z AUTO /////KT CAVOK 27/07 Q////=
ILQE 221120Z AUTO 18006KT 120V240 CAVOK 26/12 Q1015=
ILQF 221120Z AUTO 14005KT 100V180 CAVOK 26/11 Q1016=
ILQG 221120Z AUTO VRB06KT 9999 ////// 27/05 Q1017=
ILQH 221120Z AUTO 02009KT 9999 FEW048 24/17 Q1016=
ILQI 221120Z AUTO VRB06KT //// // NCD 25/07 Q////=
ILQJ 221120Z AUTO 17006KT CAVOK 23/16 Q1016=
ILQK 221120Z AUTO 17011KT 140V200 9999 ////// 22/06 Q1016=
ILQL 221120Z AUTO 24003KT 9999 ////// 24/15 Q1016=
ILQM 221120Z AUTO 22008KT 140V270 CAVOK 26/08 Q////=
ILQN 221120Z AUTO 17009KT 120V210 9999 OVC044 22/13 Q1015=
ILQO 221120Z AUTO 20007KT 140V260 CAVOK 27/07 Q1017=
ILQP 221120Z AUTO 36011KT 9999 // ////// 23/17 Q1015=
ILQQ 221130Z AUTO 17006KT 130V250 CAVOK 25/11 Q1016=
ILQR 221120Z AUTO VRB03KT CAVOK 26/08 Q1016=
ILQS 221120Z AUTO VRB04KT CAVOK 22/06 Q1017=
ILQT 221120Z AUTO 19011KT 150V220 CAVOK 24/12 Q1015=
ILQU 221120Z AUTO 21007KT 140V280 CAVOK 29/07 Q1014=
ILQV 221120Z AUTO VRB06KT CAVOK 26/05 Q1017=
ILQW 221120Z AUTO 12004KT 040V150 //// // NCD 25/10 Q////=
ILQX 221130Z AUTO VRB04KT CAVOK 27/14 Q1016=
ILQY 221120Z AUTO 14006KT 110V170 CAVOK 23/12 Q1017=
ILQZ 221120Z AUTO VRB05KT //// // NCD 27/11 Q////=
ILRU 221120Z AUTO VRB04KT CAVOK 26/10 Q1017=
ILWA 221120Z AUTO 11008KT 090V150 CAVOK 23/18 Q1015=
ILWD 221120Z AUTO /////KT //// // NCD 25/14 Q////=
ILWE 221120Z AUTO 19008KT 140V260 CAVOK 26/07 Q1015=
ILWF 221120Z AUTO 11005KT 010V170 CAVOK 25/09 Q////=
ILWG 221120Z AUTO /////KT CAVOK 26/14 Q1015=
ILXA 221120Z AUTO /////KT 9999 FEW048 25/17 Q1015=
ILXB 221120Z AUTO 13009G20KT 080V170 9999 VCSH SCT039 //////CB 26/16 Q1013=
ILXC 221120Z AUTO VRB05KT CAVOK 26/11 Q1016=
ILXD 221120Z AUTO /////KT CAVOK 26/11 Q1016=
ILXE 221130Z AUTO VRB03KT CAVOK 23/11 Q1017=
ILXF 221120Z AUTO 33010KT 9999 SCT046 22/19 Q1013=
ILXG 221130Z AUTO 26004KT CAVOK 24/19 Q1014=
ILXI 221120Z AUTO VRB02KT CAVOK 25/08 Q1017=
ILXJ 221120Z AUTO VRB04KT CAVOK 23/09 Q1017=
ILXK 221120Z AUTO 13004KT 080V210 CAVOK 24/09 Q1017=
ILXL 221120Z AUTO /////KT 9999 BKN049 25/14 Q1015=
ILXM 221120Z AUTO /////KT 9999 FEW040 24/13 Q////=
ILXN 221120Z AUTO VRB04KT 9999 FEW049 24/17 Q1014=
ILXO 221120Z AUTO 12006KT 070V170 9999 VCSH FEW044 //////CB 26/17 Q1014=
ILXP 221120Z AUTO 33007KT CAVOK 23/20 Q1013=
ILXQ 221130Z AUTO /////KT CAVOK 26/11 Q////=
ILXR 221120Z AUTO VRB04KT 9999 SCT049 25/13 Q1017=
ILXS 221120Z AUTO 34003KT 280V060 CAVOK 22/10 Q1017=
ILXT 221120Z AUTO 02010KT CAVOK 22/18 Q1015=
ILXU 221120Z AUTO /////KT CAVOK 25/10 Q1016=
ILXV 221120Z AUTO VRB03KT 9999 FEW044 26/15 Q1016=
ILXW 221120Z AUTO 11007KT 030V160 CAVOK 24/10 Q1016=
ILXX 221120Z AUTO 14007KT 100V170 9999 VCSH FEW042 //////CB 25/16 Q1014=
ILXY 221120Z AUTO 14004KT 060V230 CAVOK 25/12 Q1016=
ILXZ 221120Z AUTO 11005KT 020V160 CAVOK 26/12 Q////=
ILYL 221120Z AUTO 17007KT 120V240 CAVOK 26/14 Q1016=
ILZA 221120Z AUTO 08012KT 4600 BR NCD 20/19 Q1015=
ILZB 221120Z AUTO 11008KT 050V140 9999 FEW019 23/18 Q1013=
ILZC 221120Z AUTO /////KT CAVOK 25/13 Q1015=
ILZD 221130Z AUTO VRB11KT CAVOK 24/17 Q1014=
ILZE 221120Z AUTO 10009KT 080V140 CAVOK 24/18 Q1014=
ILZF 221120Z AUTO 12009KT 060V190 9999 FEW036 25/16 Q1014=
ILZG 221120Z AUTO /////KT 9999 FEW038 26/17 Q1015=
ILZH 221120Z AUTO /////KT CAVOK 26/13 Q1014=
ILZI 221120Z AUTO 18005KT 150V230 CAVOK 24/17 Q////=
ILZJ 220940Z AUTO 11011KT 070V140 9999 VCSH //////CB 24/17 Q1014=
ILZK 221120Z AUTO 17008KT 150V210 CAVOK 22/17 Q1013=
ILZL 221120Z AUTO 11006KT 060V170 CAVOK 26/10 Q1014=
ILZM 221120Z AUTO /////KT 9999 FEW039 SCT050 25/18 Q1014=
ILZO 221120Z AUTO 08007KT 050V110 CAVOK 24/18 Q1015=
ILZP 221120Z AUTO 13006KT 080V170 9999 VCSH FEW036 //////CB 25/19 Q1014=
ILZQ 221120Z AUTO 12005KT 060V180 9999 SCT036 24/16 Q1014=
ILZR 221120Z AUTO 14010KT 080V200 9999 VCSH FEW039 //////CB 24/15 Q////=
ILZS 221120Z AUTO 10016KT CAVOK 21/19 Q1014=
ILZT 221120Z AUTO 07013KT 9999 BKN005 22/19 Q1014=
ILZU 221120Z AUTO 09004KT 060V140 CAVOK 22/18 Q1013=
ILZV 221120Z AUTO VRB07KT 9999 FEW034 26/16 Q1014=
ILZW 221130Z AUTO 11007KT 070V130 CAVOK 23/19 Q1015=
ILZX 221120Z AUTO 10008KT 060V150 CAVOK 24/18 Q1014=
ILZY 221120Z AUTO 16006KT 120V180 0650 BCFG VV001 17/17 Q1013=
ILZZ 221120Z AUTO /////KT CAVOK 25/12 Q1015=